Climatologie pour Saint-Brevin les Pins
Jour • Résumé pour janvier 27, 2017 Système :  Métrique    Anglais   Mixte
« - 1 jour
+ 1 jour »
Jour Semaine Mois Année Personnalisé
  Maximum : Minimum : Moyenne :
Température sous abri : 10.7 °C 2.0 °C 6.8 °C
Point de rosée : 7.6 °C -0.3 °C 4.1 °C
Humidité : 95 % 70 % 83 %
Vitesse du vent : 20.9 km/h 0.0 km/h 8.9 km/h
Rafale : 30.6 km/h - -
Direction :- - SSE
Pression : 1008.7 hPa 1005.6 hPa -
Précipitations : 3.3 mm    
Historical Graphs
 
 
Tableau de données pour janvier 27, 2017
Heure Tempé Pt rosée Pression Vent Vitesse Rafale Humidité Taux pluie (/hr) Soleil
00:00 2.0 °C -0.3 °C 1008.7 hPa ESE 6.4 km/h 12.9 km/h 85 % 0.0 mm 0 W/m2
00:05 2.2 °C -0.1 °C 1008.7 hPa SSE 3.2 km/h 14.5 km/h 85 % 0.0 mm 0 W/m2
00:10 2.3 °C -0.1 °C 1008.7 hPa SE 4.8 km/h 14.5 km/h 84 % 0.0 mm 0 W/m2
00:15 2.4 °C 0.0 °C 1008.7 hPa SSE 8.0 km/h 14.5 km/h 84 % 0.0 mm 0 W/m2
00:20 2.4 °C 0.0 °C 1008.4 hPa SE 8.0 km/h 14.5 km/h 84 % 0.0 mm 0 W/m2
00:25 2.4 °C -0.2 °C 1008.4 hPa ESE 8.0 km/h 14.5 km/h 83 % 0.0 mm 0 W/m2
00:30 2.4 °C 0.0 °C 1008.4 hPa SE 11.3 km/h 14.5 km/h 84 % 0.0 mm 0 W/m2
00:40 2.6 °C 0.0 °C 1008.4 hPa ESE 4.8 km/h 16.1 km/h 83 % 0.0 mm 0 W/m2
01:05 2.5 °C -0.1 °C 1008.0 hPa ESE 11.3 km/h 17.7 km/h 83 % 0.0 mm 0 W/m2
01:10 2.6 °C 0.1 °C 1007.7 hPa ESE 11.3 km/h 17.7 km/h 84 % 0.0 mm 0 W/m2
01:15 2.6 °C 0.0 °C 1007.7 hPa ESE 4.8 km/h 17.7 km/h 83 % 0.0 mm 0 W/m2
01:20 2.7 °C 0.1 °C 1007.7 hPa SE 6.4 km/h 17.7 km/h 83 % 0.0 mm 0 W/m2
01:25 2.7 °C 0.1 °C 1007.7 hPa ESE 4.8 km/h 17.7 km/h 83 % 0.0 mm 0 W/m2
01:30 2.7 °C 0.1 °C 1007.3 hPa SE 16.1 km/h 16.1 km/h 83 % 0.0 mm 0 W/m2
01:35 2.7 °C 0.1 °C 1007.3 hPa ESE 11.3 km/h 16.1 km/h 83 % 0.0 mm 0 W/m2
01:40 2.8 °C 0.2 °C 1007.3 hPa SE 6.4 km/h 19.3 km/h 83 % 0.0 mm 0 W/m2
01:45 2.7 °C 0.1 °C 1007.3 hPa ESE 6.4 km/h 19.3 km/h 83 % 0.0 mm 0 W/m2
01:50 2.8 °C 0.2 °C 1007.3 hPa ESE 11.3 km/h 17.7 km/h 83 % 0.0 mm 0 W/m2
01:55 2.8 °C 0.2 °C 1007.0 hPa SE 3.2 km/h 17.7 km/h 83 % 0.0 mm 0 W/m2
02:00 2.9 °C 0.3 °C 1007.0 hPa SE 1.6 km/h 17.7 km/h 83 % 0.0 mm 0 W/m2
02:05 3.2 °C 0.6 °C 1007.0 hPa SE 6.4 km/h 20.9 km/h 83 % 0.0 mm 0 W/m2
02:10 3.2 °C 0.4 °C 1007.0 hPa East 8.0 km/h 20.9 km/h 82 % 0.0 mm 0 W/m2
02:15 3.3 °C 0.5 °C 1006.7 hPa SE 9.7 km/h 16.1 km/h 82 % 0.0 mm 0 W/m2
02:20 3.2 °C 0.4 °C 1007.0 hPa SE 8.0 km/h 16.1 km/h 82 % 0.0 mm 0 W/m2
02:25 3.2 °C 0.4 °C 1007.0 hPa SE 11.3 km/h 19.3 km/h 82 % 0.0 mm 0 W/m2
02:30 3.3 °C 0.5 °C 1007.0 hPa ESE 11.3 km/h 19.3 km/h 82 % 0.0 mm 0 W/m2
02:35 3.2 °C 0.4 °C 1006.7 hPa ESE 4.8 km/h 19.3 km/h 82 % 0.0 mm 0 W/m2
02:40 3.2 °C 0.4 °C 1006.7 hPa SE 8.0 km/h 17.7 km/h 82 % 0.0 mm 0 W/m2
02:45 3.2 °C 0.4 °C 1006.7 hPa ESE 1.6 km/h 19.3 km/h 82 % 0.0 mm 0 W/m2
02:50 3.2 °C 0.4 °C 1006.7 hPa SSE 3.2 km/h 19.3 km/h 82 % 0.0 mm 0 W/m2
02:55 3.2 °C 0.4 °C 1006.7 hPa ESE 11.3 km/h 22.5 km/h 82 % 0.0 mm 0 W/m2
03:00 3.2 °C 0.4 °C 1006.7 hPa SE 9.7 km/h 22.5 km/h 82 % 0.0 mm 0 W/m2
03:05 3.2 °C 0.6 °C 1006.7 hPa ESE 1.6 km/h 16.1 km/h 83 % 0.0 mm 0 W/m2
03:10 3.2 °C 0.6 °C 1006.7 hPa SE 8.0 km/h 16.1 km/h 83 % 0.0 mm 0 W/m2
03:15 3.2 °C 0.6 °C 1006.7 hPa SSE 6.4 km/h 20.9 km/h 83 % 0.0 mm 0 W/m2
03:20 3.1 °C 0.5 °C 1006.7 hPa South 6.4 km/h 20.9 km/h 83 % 0.0 mm 0 W/m2
03:25 3.1 °C 0.5 °C 1006.7 hPa ESE 4.8 km/h 16.1 km/h 83 % 0.0 mm 0 W/m2
03:30 3.2 °C 0.6 °C 1006.7 hPa ESE 11.3 km/h 19.3 km/h 83 % 0.0 mm 0 W/m2
03:40 3.2 °C 0.6 °C 1006.3 hPa East 11.3 km/h 19.3 km/h 83 % 0.0 mm 0 W/m2
03:45 3.2 °C 0.6 °C 1006.3 hPa SSE 8.0 km/h 16.1 km/h 83 % 0.0 mm 0 W/m2
03:50 3.2 °C 0.6 °C 1006.3 hPa SSE 8.0 km/h 16.1 km/h 83 % 0.0 mm 0 W/m2
03:55 3.2 °C 0.6 °C 1006.3 hPa SE 6.4 km/h 14.5 km/h 83 % 0.0 mm 0 W/m2
04:00 3.2 °C 0.6 °C 1006.3 hPa ESE 12.9 km/h 17.7 km/h 83 % 0.0 mm 0 W/m2
04:05 3.2 °C 0.6 °C 1006.3 hPa SE 11.3 km/h 17.7 km/h 83 % 0.0 mm 0 W/m2
04:20 3.1 °C 0.5 °C 1006.3 hPa SE 9.7 km/h 19.3 km/h 83 % 0.0 mm 0 W/m2
04:25 3.1 °C 0.7 °C 1006.3 hPa SE 8.0 km/h 19.3 km/h 84 % 0.0 mm 0 W/m2
04:30 3.1 °C 0.7 °C 1006.0 hPa SE 11.3 km/h 19.3 km/h 84 % 0.0 mm 0 W/m2
04:35 3.2 °C 0.7 °C 1006.0 hPa SSE 1.6 km/h 19.3 km/h 84 % 0.0 mm 0 W/m2
04:40 3.3 °C 0.8 °C 1006.0 hPa SE 9.7 km/h 19.3 km/h 84 % 0.0 mm 0 W/m2
04:45 3.3 °C 0.9 °C 1006.0 hPa ESE 4.8 km/h 17.7 km/h 84 % 0.0 mm 0 W/m2
04:50 3.4 °C 0.8 °C 1006.0 hPa SE 6.4 km/h 16.1 km/h 83 % 0.0 mm 0 W/m2
05:00 3.6 °C 0.9 °C 1005.6 hPa SE 6.4 km/h 19.3 km/h 83 % 0.0 mm 0 W/m2
05:05 3.6 °C 1.0 °C 1005.6 hPa SSE 6.4 km/h 20.9 km/h 83 % 0.0 mm 0 W/m2
05:10 3.6 °C 1.0 °C 1005.6 hPa SE 4.8 km/h 20.9 km/h 83 % 0.0 mm 0 W/m2
05:15 3.7 °C 1.1 °C 1005.6 hPa SE 11.3 km/h 20.9 km/h 83 % 0.0 mm 0 W/m2
05:20 3.7 °C 1.0 °C 1005.6 hPa SE 8.0 km/h 20.9 km/h 83 % 0.0 mm 0 W/m2
05:25 3.7 °C 1.1 °C 1005.6 hPa East 4.8 km/h 17.7 km/h 83 % 0.0 mm 0 W/m2
05:30 3.8 °C 1.2 °C 1005.6 hPa SE 12.9 km/h 17.7 km/h 83 % 0.0 mm 0 W/m2
05:35 3.9 °C 1.3 °C 1005.6 hPa East 14.5 km/h 17.7 km/h 83 % 0.0 mm 0 W/m2
05:40 4.0 °C 1.4 °C 1005.6 hPa SSE 16.1 km/h 17.7 km/h 83 % 0.0 mm 0 W/m2
05:45 4.1 °C 1.6 °C 1005.6 hPa SSE 9.7 km/h 17.7 km/h 84 % 0.0 mm 0 W/m2
05:50 4.1 °C 1.6 °C 1005.6 hPa ESE 9.7 km/h 17.7 km/h 84 % 0.0 mm 0 W/m2
05:55 4.1 °C 1.8 °C 1005.6 hPa SE 11.3 km/h 19.3 km/h 85 % 0.0 mm 0 W/m2
06:00 4.2 °C 2.0 °C 1005.6 hPa SE 16.1 km/h 20.9 km/h 86 % 0.0 mm 0 W/m2
06:05 4.2 °C 2.1 °C 1005.6 hPa South 6.4 km/h 20.9 km/h 86 % 0.0 mm 0 W/m2
06:10 4.3 °C 2.4 °C 1005.6 hPa ESE 14.5 km/h 19.3 km/h 87 % 0.0 mm 0 W/m2
06:15 4.3 °C 2.5 °C 1005.6 hPa South 4.8 km/h 20.9 km/h 88 % 0.0 mm 0 W/m2
06:20 4.4 °C 2.6 °C 1005.6 hPa SSE 9.7 km/h 20.9 km/h 88 % 0.0 mm 0 W/m2
06:25 4.4 °C 2.7 °C 1005.6 hPa SE 9.7 km/h 16.1 km/h 89 % 0.0 mm 0 W/m2
06:30 4.4 °C 2.8 °C 1005.6 hPa SSE 9.7 km/h 20.9 km/h 89 % 0.0 mm 0 W/m2
06:35 4.4 °C 2.9 °C 1005.6 hPa SSE 20.9 km/h 22.5 km/h 90 % 0.0 mm 0 W/m2
06:45 4.4 °C 2.9 °C 1005.6 hPa South 11.3 km/h 24.1 km/h 90 % 0.3 mm 0 W/m2
06:50 4.4 °C 3.1 °C 1005.6 hPa South 8.0 km/h 22.5 km/h 91 % 0.3 mm 0 W/m2
06:55 4.4 °C 3.1 °C 1005.6 hPa SE 11.3 km/h 20.9 km/h 91 % 0.3 mm 0 W/m2
07:00 4.5 °C 3.2 °C 1006.0 hPa SSE 9.7 km/h 20.9 km/h 91 % 0.3 mm 0 W/m2
07:05 4.6 °C 3.2 °C 1006.0 hPa ESE 14.5 km/h 20.9 km/h 91 % 0.3 mm 0 W/m2
07:10 4.6 °C 3.3 °C 1005.6 hPa SSE 17.7 km/h 20.9 km/h 91 % 0.3 mm 0 W/m2
07:15 4.7 °C 3.4 °C 1006.0 hPa SE 12.9 km/h 20.9 km/h 91 % 0.5 mm 0 W/m2
07:25 4.8 °C 3.4 °C 1006.0 hPa SE 9.7 km/h 19.3 km/h 91 % 0.5 mm 0 W/m2
07:30 4.8 °C 3.4 °C 1006.0 hPa SE 3.2 km/h 19.3 km/h 91 % 0.5 mm 0 W/m2
07:35 4.8 °C 3.4 °C 1006.3 hPa SE 11.3 km/h 19.3 km/h 91 % 0.5 mm 0 W/m2
07:40 4.8 °C 3.6 °C 1006.3 hPa South 12.9 km/h 17.7 km/h 92 % 0.5 mm 0 W/m2
07:45 4.8 °C 3.6 °C 1006.3 hPa SSE 9.7 km/h 17.7 km/h 92 % 0.5 mm 0 W/m2
07:50 4.8 °C 3.6 °C 1006.3 hPa SSE 8.0 km/h 17.7 km/h 92 % 0.8 mm 0 W/m2
07:55 4.8 °C 3.6 °C 1006.3 hPa SE 8.0 km/h 17.7 km/h 92 % 1.0 mm 0 W/m2
08:00 4.8 °C 3.7 °C 1006.3 hPa SSE 6.4 km/h 17.7 km/h 93 % 1.0 mm 0 W/m2
08:05 4.8 °C 3.8 °C 1006.3 hPa SSE 6.4 km/h 16.1 km/h 93 % 1.3 mm 0 W/m2
08:15 4.9 °C 3.9 °C 1006.3 hPa SE 8.0 km/h 16.1 km/h 93 % 1.3 mm 0 W/m2
08:20 4.9 °C 3.9 °C 1006.3 hPa SE 8.0 km/h 19.3 km/h 93 % 1.3 mm 0 W/m2
08:25 5.0 °C 4.0 °C 1006.3 hPa SSE 11.3 km/h 19.3 km/h 93 % 1.3 mm 0 W/m2
08:30 5.0 °C 4.0 °C 1006.3 hPa SE 8.0 km/h 17.7 km/h 93 % 1.3 mm 0 W/m2
08:40 5.0 °C 4.0 °C 1006.3 hPa SSE 9.7 km/h 19.3 km/h 93 % 0.8 mm 0 W/m2
08:45 5.1 °C 4.0 °C 1006.7 hPa SE 6.4 km/h 20.9 km/h 93 % 0.8 mm 0 W/m2
08:50 5.1 °C 3.9 °C 1006.3 hPa SSE 12.9 km/h 20.9 km/h 92 % 0.5 mm 0 W/m2
08:55 5.1 °C 3.9 °C 1006.7 hPa SSE 11.3 km/h 17.7 km/h 92 % 0.5 mm 0 W/m2
09:00 5.1 °C 3.9 °C 1006.7 hPa SSE 6.4 km/h 16.1 km/h 92 % 0.5 mm 0 W/m2
09:05 5.1 °C 3.9 °C 1006.7 hPa SE 12.9 km/h 16.1 km/h 92 % 0.5 mm 0 W/m2
09:10 5.1 °C 3.9 °C 1006.7 hPa South 14.5 km/h 16.1 km/h 92 % 0.3 mm 5 W/m2
09:15 5.2 °C 3.8 °C 1006.7 hPa SE 11.3 km/h 20.9 km/h 91 % 0.3 mm 9 W/m2
09:25 5.3 °C 3.8 °C 1006.7 hPa SSW 11.3 km/h 20.9 km/h 90 % 0.3 mm 9 W/m2
09:30 5.3 °C 3.7 °C 1006.7 hPa SSE 9.7 km/h 19.3 km/h 89 % 0.3 mm 11 W/m2
09:40 5.4 °C 3.7 °C 1007.0 hPa SSE 9.7 km/h 17.7 km/h 89 % 0.3 mm 9 W/m2
09:45 5.4 °C 3.6 °C 1007.0 hPa SSE 6.4 km/h 17.7 km/h 88 % 0.3 mm 11 W/m2
09:50 5.4 °C 3.6 °C 1006.7 hPa SE 12.9 km/h 17.7 km/h 88 % 0.3 mm 11 W/m2
09:55 5.5 °C 3.7 °C 1006.7 hPa South 6.4 km/h 17.7 km/h 88 % 0.0 mm 16 W/m2
10:05 5.7 °C 3.7 °C 1006.7 hPa SE 6.4 km/h 22.5 km/h 87 % 0.0 mm 28 W/m2
10:10 5.8 °C 3.6 °C 1006.7 hPa SE 12.9 km/h 17.7 km/h 86 % 0.0 mm 39 W/m2
10:15 5.9 °C 3.8 °C 1007.0 hPa SE 4.8 km/h 20.9 km/h 86 % 0.0 mm 40 W/m2
10:20 6.0 °C 3.7 °C 1007.0 hPa SSE 6.4 km/h 20.9 km/h 85 % 0.0 mm 62 W/m2
10:25 6.2 °C 3.8 °C 1007.0 hPa South 8.0 km/h 22.5 km/h 85 % 0.0 mm 54 W/m2
10:30 6.3 °C 3.8 °C 1007.0 hPa SSE 11.3 km/h 25.7 km/h 84 % 0.0 mm 63 W/m2
10:35 6.3 °C 3.8 °C 1007.0 hPa SSE 6.4 km/h 25.7 km/h 84 % 0.0 mm 98 W/m2
10:40 6.4 °C 3.9 °C 1007.0 hPa ESE 14.5 km/h 20.9 km/h 84 % 0.0 mm 97 W/m2
10:50 6.6 °C 3.9 °C 1007.0 hPa SE 9.7 km/h 17.7 km/h 83 % 0.0 mm 84 W/m2
10:55 6.6 °C 3.9 °C 1007.0 hPa SE 8.0 km/h 17.7 km/h 83 % 0.0 mm 88 W/m2
11:00 6.7 °C 4.0 °C 1007.0 hPa SE 8.0 km/h 19.3 km/h 83 % 0.0 mm 141 W/m2
11:05 7.1 °C 4.4 °C 1007.0 hPa SSE 14.5 km/h 24.1 km/h 83 % 0.0 mm 225 W/m2
11:15 7.5 °C 4.3 °C 1007.0 hPa South 8.0 km/h 25.7 km/h 80 % 0.0 mm 160 W/m2
11:20 7.6 °C 4.4 °C 1007.0 hPa SSE 14.5 km/h 22.5 km/h 80 % 0.0 mm 139 W/m2
11:25 7.6 °C 4.2 °C 1007.0 hPa SE 19.3 km/h 25.7 km/h 79 % 0.0 mm 123 W/m2
11:30 7.7 °C 4.3 °C 1007.0 hPa SSE 17.7 km/h 25.7 km/h 79 % 0.0 mm 127 W/m2
11:40 7.8 °C 4.4 °C 1007.0 hPa SE 6.4 km/h 20.9 km/h 79 % 0.0 mm 149 W/m2
11:45 8.0 °C 4.4 °C 1007.0 hPa SSE 11.3 km/h 20.9 km/h 78 % 0.0 mm 176 W/m2
11:50 8.2 °C 4.6 °C 1007.3 hPa SSW 6.4 km/h 20.9 km/h 78 % 0.0 mm 195 W/m2
11:55 8.3 °C 4.5 °C 1007.3 hPa SSE 9.7 km/h 22.5 km/h 77 % 0.0 mm 165 W/m2
12:00 8.3 °C 4.5 °C 1007.0 hPa SSE 11.3 km/h 22.5 km/h 77 % 0.0 mm 149 W/m2
12:05 8.3 °C 4.5 °C 1007.0 hPa South 8.0 km/h 22.5 km/h 77 % 0.0 mm 105 W/m2
12:10 8.2 °C 4.4 °C 1007.0 hPa SSE 17.7 km/h 20.9 km/h 77 % 0.0 mm 77 W/m2
12:15 8.2 °C 4.4 °C 1007.0 hPa SSE 6.4 km/h 20.9 km/h 77 % 0.0 mm 88 W/m2
12:20 8.2 °C 4.6 °C 1007.0 hPa South 12.9 km/h 19.3 km/h 78 % 0.0 mm 137 W/m2
12:25 8.2 °C 4.6 °C 1007.0 hPa SSW 9.7 km/h 20.9 km/h 78 % 0.0 mm 141 W/m2
12:30 8.4 °C 4.6 °C 1007.0 hPa SE 6.4 km/h 20.9 km/h 77 % 0.0 mm 141 W/m2
12:35 8.5 °C 4.7 °C 1007.0 hPa SSE 11.3 km/h 20.9 km/h 77 % 0.0 mm 125 W/m2
12:45 8.6 °C 4.8 °C 1007.0 hPa SE 6.4 km/h 20.9 km/h 77 % 0.0 mm 88 W/m2
12:55 8.6 °C 4.6 °C 1007.0 hPa SSE 11.3 km/h 20.9 km/h 76 % 0.0 mm 63 W/m2
13:05 8.6 °C 4.4 °C 1006.7 hPa SSE 16.1 km/h 19.3 km/h 75 % 0.0 mm 44 W/m2
13:10 8.5 °C 4.3 °C 1006.7 hPa SSE 12.9 km/h 19.3 km/h 75 % 0.0 mm 47 W/m2
13:15 8.5 °C 4.3 °C 1006.7 hPa South 12.9 km/h 17.7 km/h 75 % 0.0 mm 60 W/m2
13:20 8.6 °C 4.4 °C 1006.7 hPa SSE 8.0 km/h 17.7 km/h 75 % 0.0 mm 83 W/m2
13:25 8.7 °C 4.5 °C 1006.7 hPa South 9.7 km/h 17.7 km/h 75 % 0.0 mm 95 W/m2
13:30 8.8 °C 4.4 °C 1006.3 hPa South 12.9 km/h 20.9 km/h 74 % 0.0 mm 128 W/m2
13:40 9.2 °C 4.8 °C 1006.3 hPa SSE 8.0 km/h 24.1 km/h 74 % 0.0 mm 151 W/m2
13:45 9.3 °C 4.9 °C 1006.3 hPa SSE 6.4 km/h 24.1 km/h 74 % 0.0 mm 149 W/m2
13:55 9.6 °C 5.1 °C 1006.0 hPa SE 6.4 km/h 20.9 km/h 74 % 0.0 mm 158 W/m2
14:00 9.7 °C 5.1 °C 1006.0 hPa SSE 16.1 km/h 20.9 km/h 73 % 0.0 mm 174 W/m2
14:05 9.8 °C 5.0 °C 1006.0 hPa South 6.4 km/h 19.3 km/h 72 % 0.0 mm 158 W/m2
14:10 9.9 °C 5.5 °C 1006.0 hPa SE 12.9 km/h 19.3 km/h 74 % 0.0 mm 163 W/m2
14:15 9.9 °C 5.1 °C 1006.0 hPa SSE 8.0 km/h 16.1 km/h 72 % 0.0 mm 155 W/m2
14:20 9.9 °C 5.1 °C 1005.6 hPa SE 6.4 km/h 17.7 km/h 72 % 0.0 mm 137 W/m2
14:35 10.2 °C 5.3 °C 1005.6 hPa East 4.8 km/h 14.5 km/h 72 % 0.0 mm 155 W/m2
14:40 10.3 °C 5.7 °C 1005.6 hPa SSE 8.0 km/h 14.5 km/h 73 % 0.0 mm 151 W/m2
14:45 10.5 °C 5.7 °C 1005.6 hPa South 8.0 km/h 14.5 km/h 72 % 0.0 mm 156 W/m2
14:50 10.6 °C 5.8 °C 1005.6 hPa SSE 4.8 km/h 12.9 km/h 72 % 0.0 mm 149 W/m2
15:00 10.6 °C 5.7 °C 1006.0 hPa SSE 11.3 km/h 19.3 km/h 72 % 0.0 mm 93 W/m2
15:05 10.6 °C 5.5 °C 1006.0 hPa SSE 11.3 km/h 14.5 km/h 71 % 0.0 mm 107 W/m2
15:10 10.6 °C 5.5 °C 1006.0 hPa South 8.0 km/h 19.3 km/h 71 % 0.0 mm 91 W/m2
15:15 10.5 °C 5.3 °C 1006.0 hPa SE 6.4 km/h 19.3 km/h 70 % 0.0 mm 77 W/m2
15:20 10.5 °C 5.3 °C 1006.0 hPa South 6.4 km/h 17.7 km/h 70 % 0.0 mm 104 W/m2
15:25 10.5 °C 5.5 °C 1006.0 hPa SE 4.8 km/h 16.1 km/h 71 % 0.0 mm 162 W/m2
15:30 10.7 °C 5.6 °C 1006.0 hPa ESE 8.0 km/h 14.5 km/h 71 % 0.0 mm 137 W/m2
15:40 10.6 °C 5.7 °C 1006.0 hPa SE 4.8 km/h 17.7 km/h 72 % 0.0 mm 118 W/m2
15:45 10.6 °C 5.7 °C 1006.0 hPa SE 11.3 km/h 16.1 km/h 72 % 0.0 mm 142 W/m2
15:50 10.6 °C 5.8 °C 1006.0 hPa SSE 4.8 km/h 16.1 km/h 72 % 0.0 mm 125 W/m2
15:55 10.7 °C 5.8 °C 1006.3 hPa SSE 9.7 km/h 16.1 km/h 72 % 0.0 mm 130 W/m2
16:00 10.7 °C 5.6 °C 1006.0 hPa SE 8.0 km/h 16.1 km/h 71 % 0.0 mm 121 W/m2
16:05 10.7 °C 5.8 °C 1006.0 hPa SE 4.8 km/h 16.1 km/h 72 % 0.0 mm 109 W/m2
16:10 10.6 °C 5.8 °C 1006.3 hPa SSE 8.0 km/h 16.1 km/h 72 % 0.0 mm 111 W/m2
16:15 10.6 °C 5.7 °C 1006.3 hPa SSE 11.3 km/h 16.1 km/h 72 % 0.0 mm 104 W/m2
16:20 10.6 °C 5.7 °C 1006.3 hPa SE 14.5 km/h 16.1 km/h 72 % 0.0 mm 98 W/m2
16:25 10.5 °C 5.7 °C 1006.3 hPa SSE 9.7 km/h 22.5 km/h 72 % 0.0 mm 113 W/m2
16:30 10.6 °C 5.7 °C 1006.3 hPa South 16.1 km/h 22.5 km/h 72 % 0.0 mm 114 W/m2
16:35 10.6 °C 5.7 °C 1006.3 hPa SSE 8.0 km/h 20.9 km/h 72 % 0.0 mm 102 W/m2
16:40 10.6 °C 5.7 °C 1006.3 hPa SSE 1.6 km/h 19.3 km/h 72 % 0.0 mm 79 W/m2
16:45 10.5 °C 5.9 °C 1006.3 hPa SE 11.3 km/h 16.1 km/h 73 % 0.0 mm 60 W/m2
16:50 10.4 °C 5.6 °C 1006.3 hPa SSE 3.2 km/h 17.7 km/h 72 % 0.0 mm 56 W/m2
16:55 10.4 °C 5.6 °C 1006.3 hPa SSE 6.4 km/h 17.7 km/h 72 % 0.0 mm 63 W/m2
17:00 10.4 °C 5.8 °C 1006.3 hPa SE 16.1 km/h 16.1 km/h 73 % 0.0 mm 49 W/m2
17:10 10.2 °C 5.4 °C 1006.3 hPa SE 6.4 km/h 20.9 km/h 72 % 0.0 mm 30 W/m2
17:15 10.2 °C 5.5 °C 1006.3 hPa SSE 8.0 km/h 17.7 km/h 73 % 0.0 mm 25 W/m2
17:20 10.1 °C 5.4 °C 1006.3 hPa SSE 4.8 km/h 17.7 km/h 73 % 0.0 mm 21 W/m2
17:25 9.9 °C 5.3 °C 1006.3 hPa SSE 8.0 km/h 14.5 km/h 73 % 0.0 mm 16 W/m2
17:30 9.9 °C 5.3 °C 1006.7 hPa SE 4.8 km/h 14.5 km/h 73 % 0.0 mm 12 W/m2
17:35 9.8 °C 5.2 °C 1006.3 hPa SE 8.0 km/h 14.5 km/h 73 % 0.0 mm 9 W/m2
17:40 9.7 °C 5.1 °C 1006.7 hPa SE 8.0 km/h 12.9 km/h 73 % 0.0 mm 7 W/m2
17:45 9.6 °C 5.1 °C 1006.7 hPa SSE 4.8 km/h 12.9 km/h 74 % 0.0 mm 0 W/m2
17:50 9.4 °C 5.0 °C 1006.7 hPa SE 3.2 km/h 11.3 km/h 74 % 0.0 mm 0 W/m2
17:55 9.4 °C 5.2 °C 1006.7 hPa Calm   11.3 km/h 75 % 0.0 mm 0 W/m2
18:00 9.2 °C 5.0 °C 1006.7 hPa SE 6.4 km/h 11.3 km/h 75 % 0.0 mm 0 W/m2
18:05 9.2 °C 5.2 °C 1006.7 hPa SSE 4.8 km/h 11.3 km/h 76 % 0.0 mm 0 W/m2
18:10 9.1 °C 5.1 °C 1006.7 hPa SSE 6.4 km/h 11.3 km/h 76 % 0.0 mm 0 W/m2
18:15 9.1 °C 5.1 °C 1006.7 hPa SSE 1.6 km/h 12.9 km/h 76 % 0.0 mm 0 W/m2
18:20 9.1 °C 5.1 °C 1006.7 hPa SSE 3.2 km/h 12.9 km/h 76 % 0.0 mm 0 W/m2
18:25 9.1 °C 5.0 °C 1006.7 hPa SE 9.7 km/h 11.3 km/h 76 % 0.0 mm 0 W/m2
18:30 9.0 °C 5.0 °C 1006.7 hPa SSE 8.0 km/h 12.9 km/h 76 % 0.0 mm 0 W/m2
18:40 9.1 °C 5.0 °C 1007.0 hPa SE 9.7 km/h 20.9 km/h 76 % 0.0 mm 0 W/m2
18:45 9.1 °C 5.1 °C 1007.0 hPa SSE 11.3 km/h 20.9 km/h 76 % 0.0 mm 0 W/m2
18:55 9.3 °C 5.3 °C 1007.0 hPa SSE 12.9 km/h 24.1 km/h 76 % 0.0 mm 0 W/m2
19:00 9.4 °C 5.6 °C 1006.7 hPa SSW 12.9 km/h 24.1 km/h 77 % 0.0 mm 0 W/m2
19:05 9.7 °C 6.1 °C 1007.0 hPa SSW 17.7 km/h 29.0 km/h 78 % 0.0 mm 0 W/m2
19:10 9.8 °C 6.4 °C 1007.0 hPa SSE 16.1 km/h 30.6 km/h 79 % 0.0 mm 0 W/m2
19:15 9.8 °C 6.4 °C 1007.0 hPa SSE 17.7 km/h 30.6 km/h 79 % 0.0 mm 0 W/m2
19:20 9.7 °C 6.6 °C 1007.0 hPa SE 14.5 km/h 25.7 km/h 81 % 0.0 mm 0 W/m2
19:25 9.5 °C 6.8 °C 1007.0 hPa SSE 11.3 km/h 20.9 km/h 83 % 0.0 mm 0 W/m2
19:30 9.3 °C 6.8 °C 1007.0 hPa South 8.0 km/h 24.1 km/h 84 % 0.0 mm 0 W/m2
19:35 9.3 °C 6.7 °C 1007.0 hPa South 17.7 km/h 24.1 km/h 84 % 0.0 mm 0 W/m2
19:40 9.2 °C 6.8 °C 1007.0 hPa SE 14.5 km/h 22.5 km/h 85 % 0.0 mm 0 W/m2
19:45 9.2 °C 6.8 °C 1007.0 hPa South 8.0 km/h 22.5 km/h 85 % 0.0 mm 0 W/m2
19:50 9.2 °C 6.8 °C 1007.3 hPa South 8.0 km/h 22.5 km/h 85 % 0.0 mm 0 W/m2
19:55 9.2 °C 6.8 °C 1007.0 hPa SSE 14.5 km/h 22.5 km/h 85 % 0.3 mm 0 W/m2
20:00 9.0 °C 6.8 °C 1007.0 hPa South 8.0 km/h 20.9 km/h 86 % 0.3 mm 0 W/m2
20:05 8.9 °C 6.8 °C 1007.0 hPa SSE 8.0 km/h 17.7 km/h 87 % 0.3 mm 0 W/m2
20:10 8.8 °C 7.0 °C 1007.3 hPa SSE 11.3 km/h 17.7 km/h 88 % 0.3 mm 0 W/m2
20:15 8.8 °C 6.9 °C 1007.3 hPa South 8.0 km/h 17.7 km/h 88 % 0.5 mm 0 W/m2
20:20 8.8 °C 7.1 °C 1007.0 hPa SSE 11.3 km/h 24.1 km/h 89 % 0.5 mm 0 W/m2
20:25 8.8 °C 7.1 °C 1007.3 hPa SSE 8.0 km/h 24.1 km/h 89 % 0.5 mm 0 W/m2
20:30 8.8 °C 7.1 °C 1007.0 hPa SW 11.3 km/h 22.5 km/h 89 % 0.5 mm 0 W/m2
20:40 8.8 °C 7.2 °C 1007.0 hPa SSW 6.4 km/h 19.3 km/h 90 % 0.8 mm 0 W/m2
20:45 8.8 °C 7.2 °C 1007.0 hPa SSW 6.4 km/h 19.3 km/h 90 % 0.8 mm 0 W/m2
20:50 8.7 °C 7.2 °C 1007.0 hPa SSW 11.3 km/h 19.3 km/h 90 % 0.8 mm 0 W/m2
20:55 8.7 °C 7.1 °C 1007.0 hPa South 4.8 km/h 19.3 km/h 90 % 0.8 mm 0 W/m2
21:00 8.6 °C 7.2 °C 1007.0 hPa SSW 4.8 km/h 16.1 km/h 91 % 0.8 mm 0 W/m2
21:10 8.4 °C 7.2 °C 1007.0 hPa SSW 8.0 km/h 17.7 km/h 92 % 0.8 mm 0 W/m2
21:15 8.4 °C 7.2 °C 1007.0 hPa South 8.0 km/h 17.7 km/h 92 % 0.5 mm 0 W/m2
21:20 8.3 °C 7.1 °C 1007.0 hPa South 6.4 km/h 16.1 km/h 92 % 0.5 mm 0 W/m2
21:25 8.3 °C 7.1 °C 1007.0 hPa SSW 4.8 km/h 16.1 km/h 92 % 0.5 mm 0 W/m2
21:30 8.3 °C 7.2 °C 1007.0 hPa SSE 8.0 km/h 16.1 km/h 93 % 0.5 mm 0 W/m2
21:35 8.3 °C 7.2 °C 1007.0 hPa SSE 4.8 km/h 14.5 km/h 93 % 0.5 mm 0 W/m2
21:40 8.3 °C 7.4 °C 1007.0 hPa SSE 9.7 km/h 12.9 km/h 94 % 0.5 mm 0 W/m2
21:45 8.3 °C 7.4 °C 1007.0 hPa South 11.3 km/h 12.9 km/h 94 % 0.5 mm 0 W/m2
21:50 8.3 °C 7.4 °C 1007.0 hPa SSE 11.3 km/h 14.5 km/h 94 % 0.5 mm 0 W/m2
21:55 8.3 °C 7.4 °C 1007.0 hPa South 6.4 km/h 14.5 km/h 94 % 0.5 mm 0 W/m2
22:00 8.3 °C 7.4 °C 1007.0 hPa South 8.0 km/h 14.5 km/h 94 % 0.5 mm 0 W/m2
22:05 8.3 °C 7.4 °C 1007.0 hPa South 9.7 km/h 14.5 km/h 94 % 0.5 mm 0 W/m2
22:10 8.4 °C 7.5 °C 1007.0 hPa SSE 9.7 km/h 16.1 km/h 94 % 0.5 mm 0 W/m2
22:15 8.5 °C 7.6 °C 1007.0 hPa SE 3.2 km/h 16.1 km/h 94 % 0.5 mm 0 W/m2
22:20 8.5 °C 7.6 °C 1007.0 hPa South 8.0 km/h 14.5 km/h 94 % 0.3 mm 0 W/m2
22:25 8.6 °C 7.5 °C 1007.0 hPa South 8.0 km/h 17.7 km/h 93 % 0.3 mm 0 W/m2
22:30 8.6 °C 7.5 °C 1007.0 hPa South 11.3 km/h 17.7 km/h 93 % 0.3 mm 0 W/m2
22:35 8.6 °C 7.5 °C 1007.0 hPa South 6.4 km/h 20.9 km/h 93 % 0.3 mm 0 W/m2
22:40 8.7 °C 7.6 °C 1007.0 hPa SSE 8.0 km/h 20.9 km/h 93 % 0.3 mm 0 W/m2
22:45 8.6 °C 7.5 °C 1007.0 hPa SSE 4.8 km/h 17.7 km/h 93 % 0.0 mm 0 W/m2
22:50 8.5 °C 7.4 °C 1007.0 hPa South 6.4 km/h 12.9 km/h 93 % 0.0 mm 0 W/m2
22:55 8.4 °C 7.3 °C 1007.0 hPa South 6.4 km/h 12.9 km/h 93 % 0.0 mm 0 W/m2
23:00 8.3 °C 7.3 °C 1007.3 hPa South 4.8 km/h 11.3 km/h 93 % 0.0 mm 0 W/m2
23:05 8.3 °C 7.3 °C 1007.3 hPa South 8.0 km/h 16.1 km/h 93 % 0.0 mm 0 W/m2
23:10 8.3 °C 7.3 °C 1007.3 hPa SSE 6.4 km/h 16.1 km/h 93 % 0.0 mm 0 W/m2
23:15 8.3 °C 7.2 °C 1007.3 hPa SSE 4.8 km/h 14.5 km/h 93 % 0.0 mm 0 W/m2
23:20 8.3 °C 7.2 °C 1007.3 hPa SSE 6.4 km/h 14.5 km/h 93 % 0.0 mm 0 W/m2
23:25 8.2 °C 7.3 °C 1007.3 hPa SSE 11.3 km/h 12.9 km/h 94 % 0.0 mm 0 W/m2
23:30 8.1 °C 7.1 °C 1007.3 hPa SSE 3.2 km/h 12.9 km/h 94 % 0.0 mm 0 W/m2
23:35 8.0 °C 7.1 °C 1007.3 hPa SSE 8.0 km/h 11.3 km/h 94 % 0.0 mm 0 W/m2
23:40 8.0 °C 7.1 °C 1007.3 hPa South 6.4 km/h 11.3 km/h 94 % 0.0 mm 0 W/m2
23:50 8.1 °C 7.4 °C 1007.7 hPa SSE 8.0 km/h 12.9 km/h 95 % 0.0 mm 0 W/m2
23:55 8.2 °C 7.5 °C 1007.7 hPa South 14.5 km/h 14.5 km/h 95 % 0.0 mm 0 W/m2
Avec l'autorisation de Weather Underground - 1.5 mb